sensor_id;sensor_type;location;lat;lon;timestamp;P1;durP1;ratioP1;P2;durP2;ratioP2
26082;SDS011;13848;49.018;12.078;2023-05-10T00:01:40;3.88;;;2.65;;
26082;SDS011;13848;49.018;12.078;2023-05-10T00:04:06;4.10;;;2.80;;
26082;SDS011;13848;49.018;12.078;2023-05-10T00:06:34;2.90;;;2.55;;
26082;SDS011;13848;49.018;12.078;2023-05-10T00:09:00;4.22;;;2.80;;
26082;SDS011;13848;49.018;12.078;2023-05-10T00:11:26;2.80;;;2.45;;
26082;SDS011;13848;49.018;12.078;2023-05-10T00:13:52;4.40;;;2.67;;
26082;SDS011;13848;49.018;12.078;2023-05-10T00:16:18;2.95;;;2.63;;
26082;SDS011;13848;49.018;12.078;2023-05-10T00:18:44;4.57;;;3.00;;
26082;SDS011;13848;49.018;12.078;2023-05-10T00:21:10;4.28;;;3.08;;
26082;SDS011;13848;49.018;12.078;2023-05-10T00:23:37;3.65;;;2.60;;
26082;SDS011;13848;49.018;12.078;2023-05-10T00:26:03;7.22;;;2.80;;
26082;SDS011;13848;49.018;12.078;2023-05-10T00:28:29;5.47;;;3.20;;
26082;SDS011;13848;49.018;12.078;2023-05-10T00:30:55;8.80;;;2.90;;
26082;SDS011;13848;49.018;12.078;2023-05-10T00:33:21;5.78;;;2.90;;
26082;SDS011;13848;49.018;12.078;2023-05-10T00:35:48;4.63;;;2.83;;
26082;SDS011;13848;49.018;12.078;2023-05-10T00:38:13;3.75;;;2.92;;
26082;SDS011;13848;49.018;12.078;2023-05-10T00:40:41;5.60;;;3.08;;
26082;SDS011;13848;49.018;12.078;2023-05-10T00:43:07;3.30;;;2.70;;
26082;SDS011;13848;49.018;12.078;2023-05-10T00:45:33;6.22;;;2.95;;
26082;SDS011;13848;49.018;12.078;2023-05-10T00:48:00;4.40;;;3.08;;
26082;SDS011;13848;49.018;12.078;2023-05-10T00:50:27;6.93;;;2.72;;
26082;SDS011;13848;49.018;12.078;2023-05-10T00:52:53;3.90;;;2.85;;
26082;SDS011;13848;49.018;12.078;2023-05-10T00:55:20;4.80;;;2.85;;
26082;SDS011;13848;49.018;12.078;2023-05-10T00:57:48;6.68;;;2.80;;
26082;SDS011;13848;49.018;12.078;2023-05-10T01:00:14;5.53;;;2.80;;
26082;SDS011;13848;49.018;12.078;2023-05-10T01:02:40;8.27;;;3.00;;
26082;SDS011;13848;49.018;12.078;2023-05-10T01:05:07;4.80;;;2.90;;
26082;SDS011;13848;49.018;12.078;2023-05-10T01:07:33;6.03;;;3.00;;
26082;SDS011;13848;49.018;12.078;2023-05-10T01:09:59;3.33;;;2.97;;
26082;SDS011;13848;49.018;12.078;2023-05-10T01:12:25;5.85;;;2.97;;
26082;SDS011;13848;49.018;12.078;2023-05-10T01:14:52;3.90;;;2.95;;
26082;SDS011;13848;49.018;12.078;2023-05-10T01:17:19;8.23;;;2.90;;
26082;SDS011;13848;49.018;12.078;2023-05-10T01:19:47;4.00;;;3.22;;
26082;SDS011;13848;49.018;12.078;2023-05-10T01:22:25;5.50;;;3.40;;
26082;SDS011;13848;49.018;12.078;2023-05-10T01:25:11;4.40;;;3.42;;
26082;SDS011;13848;49.018;12.078;2023-05-10T01:28:07;3.58;;;2.70;;
26082;SDS011;13848;49.018;12.078;2023-05-10T01:33:57;7.47;;;3.17;;
26082;SDS011;13848;49.018;12.078;2023-05-10T01:36:30;4.72;;;3.10;;
26082;SDS011;13848;49.018;12.078;2023-05-10T01:38:59;5.10;;;3.10;;
26082;SDS011;13848;49.018;12.078;2023-05-10T01:41:36;6.35;;;3.35;;
26082;SDS011;13848;49.018;12.078;2023-05-10T01:44:12;6.70;;;3.40;;
26082;SDS011;13848;49.018;12.078;2023-05-10T01:46:43;4.45;;;2.92;;
26082;SDS011;13848;49.018;12.078;2023-05-10T01:49:19;9.70;;;3.42;;
26082;SDS011;13848;49.018;12.078;2023-05-10T01:51:50;6.82;;;2.92;;
26082;SDS011;13848;49.018;12.078;2023-05-10T01:54:19;6.43;;;3.35;;
26082;SDS011;13848;49.018;12.078;2023-05-10T01:56:47;4.40;;;3.08;;
26082;SDS011;13848;49.018;12.078;2023-05-10T01:59:17;3.83;;;3.28;;
26082;SDS011;13848;49.018;12.078;2023-05-10T02:01:45;5.68;;;3.83;;
26082;SDS011;13848;49.018;12.078;2023-05-10T02:04:13;6.10;;;3.25;;
26082;SDS011;13848;49.018;12.078;2023-05-10T02:06:42;5.30;;;3.08;;
26082;SDS011;13848;49.018;12.078;2023-05-10T02:09:10;4.32;;;3.17;;
26082;SDS011;13848;49.018;12.078;2023-05-10T02:11:37;4.00;;;3.15;;
26082;SDS011;13848;49.018;12.078;2023-05-10T02:14:04;5.55;;;3.47;;
26082;SDS011;13848;49.018;12.078;2023-05-10T02:16:33;4.78;;;3.05;;
26082;SDS011;13848;49.018;12.078;2023-05-10T02:19:01;6.70;;;3.30;;
26082;SDS011;13848;49.018;12.078;2023-05-10T02:21:29;5.95;;;3.45;;
26082;SDS011;13848;49.018;12.078;2023-05-10T02:23:55;5.70;;;3.60;;
26082;SDS011;13848;49.018;12.078;2023-05-10T02:26:23;4.78;;;3.35;;
26082;SDS011;13848;49.018;12.078;2023-05-10T02:28:50;6.20;;;3.70;;
26082;SDS011;13848;49.018;12.078;2023-05-10T02:31:17;4.65;;;3.70;;
26082;SDS011;13848;49.018;12.078;2023-05-10T02:33:44;6.75;;;3.92;;
26082;SDS011;13848;49.018;12.078;2023-05-10T02:36:11;4.75;;;3.65;;
26082;SDS011;13848;49.018;12.078;2023-05-10T02:38:40;6.25;;;4.03;;
26082;SDS011;13848;49.018;12.078;2023-05-10T02:41:07;4.53;;;3.47;;
26082;SDS011;13848;49.018;12.078;2023-05-10T02:43:35;4.68;;;3.67;;
26082;SDS011;13848;49.018;12.078;2023-05-10T02:46:03;6.82;;;4.10;;
26082;SDS011;13848;49.018;12.078;2023-05-10T02:48:29;4.30;;;3.70;;
26082;SDS011;13848;49.018;12.078;2023-05-10T02:50:56;4.47;;;3.83;;
26082;SDS011;13848;49.018;12.078;2023-05-10T02:53:30;4.38;;;3.30;;
26082;SDS011;13848;49.018;12.078;2023-05-10T02:56:00;6.38;;;3.90;;
26082;SDS011;13848;49.018;12.078;2023-05-10T02:58:32;6.60;;;4.03;;
26082;SDS011;13848;49.018;12.078;2023-05-10T03:00:59;4.57;;;3.75;;
26082;SDS011;13848;49.018;12.078;2023-05-10T03:03:25;6.80;;;4.20;;
26082;SDS011;13848;49.018;12.078;2023-05-10T03:05:51;5.47;;;3.88;;
26082;SDS011;13848;49.018;12.078;2023-05-10T03:08:17;7.82;;;4.40;;
26082;SDS011;13848;49.018;12.078;2023-05-10T03:10:47;7.65;;;4.60;;
26082;SDS011;13848;49.018;12.078;2023-05-10T03:13:25;6.07;;;4.55;;
26082;SDS011;13848;49.018;12.078;2023-05-10T03:15:58;5.50;;;4.22;;
26082;SDS011;13848;49.018;12.078;2023-05-10T03:18:33;6.22;;;4.53;;
26082;SDS011;13848;49.018;12.078;2023-05-10T03:21:07;6.20;;;4.45;;
26082;SDS011;13848;49.018;12.078;2023-05-10T03:23:38;6.63;;;4.72;;
26082;SDS011;13848;49.018;12.078;2023-05-10T03:26:07;10.88;;;4.72;;
26082;SDS011;13848;49.018;12.078;2023-05-10T03:28:35;7.20;;;5.18;;
26082;SDS011;13848;49.018;12.078;2023-05-10T03:31:02;6.57;;;5.13;;
26082;SDS011;13848;49.018;12.078;2023-05-10T03:33:28;7.30;;;5.47;;
26082;SDS011;13848;49.018;12.078;2023-05-10T03:35:54;7.30;;;5.35;;
26082;SDS011;13848;49.018;12.078;2023-05-10T03:38:20;5.60;;;4.78;;
26082;SDS011;13848;49.018;12.078;2023-05-10T03:40:46;11.02;;;5.50;;
26082;SDS011;13848;49.018;12.078;2023-05-10T03:43:12;10.02;;;5.38;;
26082;SDS011;13848;49.018;12.078;2023-05-10T03:45:40;9.45;;;5.72;;
26082;SDS011;13848;49.018;12.078;2023-05-10T03:48:06;7.88;;;5.50;;
26082;SDS011;13848;49.018;12.078;2023-05-10T03:50:32;8.60;;;5.28;;
26082;SDS011;13848;49.018;12.078;2023-05-10T03:52:58;8.52;;;5.40;;
26082;SDS011;13848;49.018;12.078;2023-05-10T03:55:24;7.82;;;5.80;;
26082;SDS011;13848;49.018;12.078;2023-05-10T03:57:49;7.15;;;5.50;;
26082;SDS011;13848;49.018;12.078;2023-05-10T04:00:15;7.97;;;5.72;;
26082;SDS011;13848;49.018;12.078;2023-05-10T04:02:43;8.02;;;6.03;;
26082;SDS011;13848;49.018;12.078;2023-05-10T04:05:09;13.27;;;5.63;;
26082;SDS011;13848;49.018;12.078;2023-05-10T04:07:35;9.15;;;6.20;;
26082;SDS011;13848;49.018;12.078;2023-05-10T04:10:01;14.07;;;6.18;;
26082;SDS011;13848;49.018;12.078;2023-05-10T04:12:27;8.77;;;6.22;;
26082;SDS011;13848;49.018;12.078;2023-05-10T04:14:53;9.85;;;6.05;;
26082;SDS011;13848;49.018;12.078;2023-05-10T04:17:19;8.57;;;6.15;;
26082;SDS011;13848;49.018;12.078;2023-05-10T04:19:46;7.13;;;5.95;;
26082;SDS011;13848;49.018;12.078;2023-05-10T04:22:12;8.00;;;6.40;;
26082;SDS011;13848;49.018;12.078;2023-05-10T04:24:38;9.52;;;6.65;;
26082;SDS011;13848;49.018;12.078;2023-05-10T04:27:04;10.38;;;7.50;;
26082;SDS011;13848;49.018;12.078;2023-05-10T04:29:30;10.68;;;6.78;;
26082;SDS011;13848;49.018;12.078;2023-05-10T04:31:56;10.20;;;6.20;;
26082;SDS011;13848;49.018;12.078;2023-05-10T04:34:22;9.73;;;6.65;;
26082;SDS011;13848;49.018;12.078;2023-05-10T04:36:49;9.35;;;6.07;;
26082;SDS011;13848;49.018;12.078;2023-05-10T04:39:15;8.25;;;6.70;;
26082;SDS011;13848;49.018;12.078;2023-05-10T04:41:41;8.07;;;6.22;;
26082;SDS011;13848;49.018;12.078;2023-05-10T04:44:07;10.82;;;6.50;;
26082;SDS011;13848;49.018;12.078;2023-05-10T04:46:33;9.45;;;6.32;;
26082;SDS011;13848;49.018;12.078;2023-05-10T04:48:58;9.00;;;6.38;;
26082;SDS011;13848;49.018;12.078;2023-05-10T04:51:24;9.18;;;6.70;;
26082;SDS011;13848;49.018;12.078;2023-05-10T04:53:52;8.93;;;6.80;;
26082;SDS011;13848;49.018;12.078;2023-05-10T04:56:18;9.82;;;6.75;;
26082;SDS011;13848;49.018;12.078;2023-05-10T04:58:44;9.30;;;6.97;;
26082;SDS011;13848;49.018;12.078;2023-05-10T05:01:09;8.77;;;6.65;;
26082;SDS011;13848;49.018;12.078;2023-05-10T05:03:35;8.50;;;6.70;;
26082;SDS011;13848;49.018;12.078;2023-05-10T05:06:02;8.52;;;6.68;;
26082;SDS011;13848;49.018;12.078;2023-05-10T05:08:28;10.05;;;7.15;;
26082;SDS011;13848;49.018;12.078;2023-05-10T05:10:56;12.88;;;6.88;;
26082;SDS011;13848;49.018;12.078;2023-05-10T05:13:21;8.80;;;6.55;;
26082;SDS011;13848;49.018;12.078;2023-05-10T05:15:47;10.02;;;7.00;;
26082;SDS011;13848;49.018;12.078;2023-05-10T05:18:13;9.85;;;6.88;;
26082;SDS011;13848;49.018;12.078;2023-05-10T05:20:39;13.00;;;6.93;;
26082;SDS011;13848;49.018;12.078;2023-05-10T05:23:05;10.45;;;7.28;;
26082;SDS011;13848;49.018;12.078;2023-05-10T05:25:31;9.32;;;6.68;;
26082;SDS011;13848;49.018;12.078;2023-05-10T05:27:58;10.90;;;6.80;;
26082;SDS011;13848;49.018;12.078;2023-05-10T05:30:24;14.18;;;7.80;;
26082;SDS011;13848;49.018;12.078;2023-05-10T05:32:50;9.68;;;6.82;;
26082;SDS011;13848;49.018;12.078;2023-05-10T05:35:16;10.80;;;6.80;;
26082;SDS011;13848;49.018;12.078;2023-05-10T05:37:42;15.25;;;7.00;;
26082;SDS011;13848;49.018;12.078;2023-05-10T05:40:11;10.20;;;7.28;;
26082;SDS011;13848;49.018;12.078;2023-05-10T05:42:39;11.70;;;7.70;;
26082;SDS011;13848;49.018;12.078;2023-05-10T05:45:07;11.65;;;7.28;;
26082;SDS011;13848;49.018;12.078;2023-05-10T05:47:34;10.88;;;7.30;;
26082;SDS011;13848;49.018;12.078;2023-05-10T05:49:59;10.93;;;8.10;;
26082;SDS011;13848;49.018;12.078;2023-05-10T05:52:25;12.98;;;7.32;;
26082;SDS011;13848;49.018;12.078;2023-05-10T05:54:51;9.60;;;7.18;;
26082;SDS011;13848;49.018;12.078;2023-05-10T05:57:17;12.05;;;8.05;;
26082;SDS011;13848;49.018;12.078;2023-05-10T05:59:43;10.93;;;7.72;;
26082;SDS011;13848;49.018;12.078;2023-05-10T06:02:11;11.77;;;7.60;;
26082;SDS011;13848;49.018;12.078;2023-05-10T06:04:36;11.73;;;8.13;;
26082;SDS011;13848;49.018;12.078;2023-05-10T06:07:02;11.77;;;8.20;;
26082;SDS011;13848;49.018;12.078;2023-05-10T06:09:28;9.80;;;7.50;;
26082;SDS011;13848;49.018;12.078;2023-05-10T06:11:55;10.25;;;7.82;;
26082;SDS011;13848;49.018;12.078;2023-05-10T06:14:20;11.82;;;7.60;;
26082;SDS011;13848;49.018;12.078;2023-05-10T06:16:46;10.10;;;8.07;;
26082;SDS011;13848;49.018;12.078;2023-05-10T06:19:14;10.05;;;7.43;;
26082;SDS011;13848;49.018;12.078;2023-05-10T06:21:40;13.13;;;7.90;;
26082;SDS011;13848;49.018;12.078;2023-05-10T06:24:06;14.32;;;8.95;;
26082;SDS011;13848;49.018;12.078;2023-05-10T06:26:32;9.68;;;7.65;;
26082;SDS011;13848;49.018;12.078;2023-05-10T06:28:59;11.52;;;8.10;;
26082;SDS011;13848;49.018;12.078;2023-05-10T06:31:25;9.88;;;7.50;;
26082;SDS011;13848;49.018;12.078;2023-05-10T06:33:51;11.43;;;8.07;;
26082;SDS011;13848;49.018;12.078;2023-05-10T06:36:18;16.80;;;8.48;;
26082;SDS011;13848;49.018;12.078;2023-05-10T06:38:44;10.70;;;8.10;;
26082;SDS011;13848;49.018;12.078;2023-05-10T06:41:10;10.38;;;8.23;;
26082;SDS011;13848;49.018;12.078;2023-05-10T06:43:36;13.95;;;8.68;;
26082;SDS011;13848;49.018;12.078;2023-05-10T06:46:02;11.57;;;8.13;;
26082;SDS011;13848;49.018;12.078;2023-05-10T06:48:28;11.27;;;8.65;;
26082;SDS011;13848;49.018;12.078;2023-05-10T06:50:53;13.60;;;8.85;;
26082;SDS011;13848;49.018;12.078;2023-05-10T06:53:21;10.95;;;7.90;;
26082;SDS011;13848;49.018;12.078;2023-05-10T06:55:47;11.98;;;8.50;;
26082;SDS011;13848;49.018;12.078;2023-05-10T06:58:14;12.45;;;8.85;;
26082;SDS011;13848;49.018;12.078;2023-05-10T07:00:40;13.35;;;8.43;;
26082;SDS011;13848;49.018;12.078;2023-05-10T07:03:06;11.75;;;8.07;;
26082;SDS011;13848;49.018;12.078;2023-05-10T07:05:32;13.35;;;8.63;;
26082;SDS011;13848;49.018;12.078;2023-05-10T07:07:58;12.13;;;8.93;;
26082;SDS011;13848;49.018;12.078;2023-05-10T07:10:25;10.35;;;7.70;;
26082;SDS011;13848;49.018;12.078;2023-05-10T07:12:51;12.60;;;8.70;;
26082;SDS011;13848;49.018;12.078;2023-05-10T07:15:17;12.45;;;8.02;;
26082;SDS011;13848;49.018;12.078;2023-05-10T07:17:43;10.60;;;8.43;;
26082;SDS011;13848;49.018;12.078;2023-05-10T07:20:10;11.07;;;8.38;;
26082;SDS011;13848;49.018;12.078;2023-05-10T07:22:36;11.00;;;8.13;;
26082;SDS011;13848;49.018;12.078;2023-05-10T07:25:02;9.65;;;8.02;;
26082;SDS011;13848;49.018;12.078;2023-05-10T07:27:30;10.50;;;7.88;;
26082;SDS011;13848;49.018;12.078;2023-05-10T07:29:56;10.25;;;8.30;;
26082;SDS011;13848;49.018;12.078;2023-05-10T07:32:22;11.63;;;8.48;;
26082;SDS011;13848;49.018;12.078;2023-05-10T07:34:48;10.57;;;8.07;;
26082;SDS011;13848;49.018;12.078;2023-05-10T07:37:13;13.35;;;8.70;;
26082;SDS011;13848;49.018;12.078;2023-05-10T07:39:39;10.50;;;8.40;;
26082;SDS011;13848;49.018;12.078;2023-05-10T07:42:05;12.52;;;8.23;;
26082;SDS011;13848;49.018;12.078;2023-05-10T07:44:33;9.35;;;8.23;;
26082;SDS011;13848;49.018;12.078;2023-05-10T07:46:59;12.93;;;7.63;;
26082;SDS011;13848;49.018;12.078;2023-05-10T07:49:25;11.93;;;7.50;;
26082;SDS011;13848;49.018;12.078;2023-05-10T07:51:51;10.10;;;7.97;;
26082;SDS011;13848;49.018;12.078;2023-05-10T07:54:17;10.73;;;8.35;;
26082;SDS011;13848;49.018;12.078;2023-05-10T07:56:43;10.38;;;7.80;;
26082;SDS011;13848;49.018;12.078;2023-05-10T07:59:09;9.93;;;7.28;;
26082;SDS011;13848;49.018;12.078;2023-05-10T08:01:36;9.15;;;6.82;;
26082;SDS011;13848;49.018;12.078;2023-05-10T08:04:02;7.70;;;6.80;;
26082;SDS011;13848;49.018;12.078;2023-05-10T08:06:28;10.02;;;7.35;;
26082;SDS011;13848;49.018;12.078;2023-05-10T08:08:54;10.38;;;7.47;;
26082;SDS011;13848;49.018;12.078;2023-05-10T08:11:20;9.55;;;6.88;;
26082;SDS011;13848;49.018;12.078;2023-05-10T08:13:46;9.27;;;6.75;;
26082;SDS011;13848;49.018;12.078;2023-05-10T08:16:13;8.13;;;6.43;;
26082;SDS011;13848;49.018;12.078;2023-05-10T08:18:40;9.60;;;6.88;;
26082;SDS011;13848;49.018;12.078;2023-05-10T08:21:06;9.50;;;6.97;;
26082;SDS011;13848;49.018;12.078;2023-05-10T08:23:32;10.90;;;6.82;;
26082;SDS011;13848;49.018;12.078;2023-05-10T08:25:58;8.80;;;6.72;;
26082;SDS011;13848;49.018;12.078;2023-05-10T08:28:25;9.43;;;6.35;;
26082;SDS011;13848;49.018;12.078;2023-05-10T08:30:51;11.15;;;6.97;;
26082;SDS011;13848;49.018;12.078;2023-05-10T08:33:17;7.88;;;5.85;;
26082;SDS011;13848;49.018;12.078;2023-05-10T08:35:45;9.65;;;6.80;;
26082;SDS011;13848;49.018;12.078;2023-05-10T08:38:11;11.02;;;6.65;;
26082;SDS011;13848;49.018;12.078;2023-05-10T08:40:37;9.65;;;5.93;;
26082;SDS011;13848;49.018;12.078;2023-05-10T08:43:04;10.07;;;5.80;;
26082;SDS011;13848;49.018;12.078;2023-05-10T08:45:32;6.32;;;4.72;;
26082;SDS011;13848;49.018;12.078;2023-05-10T08:47:59;6.93;;;4.50;;
26082;SDS011;13848;49.018;12.078;2023-05-10T08:50:27;7.60;;;3.95;;
26082;SDS011;13848;49.018;12.078;2023-05-10T08:52:57;4.35;;;3.42;;
26082;SDS011;13848;49.018;12.078;2023-05-10T08:55:29;4.45;;;3.40;;
26082;SDS011;13848;49.018;12.078;2023-05-10T08:57:55;4.18;;;3.10;;
26082;SDS011;13848;49.018;12.078;2023-05-10T09:00:21;5.07;;;2.80;;
26082;SDS011;13848;49.018;12.078;2023-05-10T09:02:47;3.47;;;2.30;;
26082;SDS011;13848;49.018;12.078;2023-05-10T09:05:14;2.40;;;1.60;;
26082;SDS011;13848;49.018;12.078;2023-05-10T09:07:40;1.95;;;1.00;;
26082;SDS011;13848;49.018;12.078;2023-05-10T09:10:08;1.00;;;0.90;;
26082;SDS011;13848;49.018;12.078;2023-05-10T09:12:36;0.90;;;0.80;;
26082;SDS011;13848;49.018;12.078;2023-05-10T09:15:03;0.98;;;0.90;;
26082;SDS011;13848;49.018;12.078;2023-05-10T09:17:31;1.20;;;0.93;;
26082;SDS011;13848;49.018;12.078;2023-05-10T09:19:57;1.63;;;1.05;;
26082;SDS011;13848;49.018;12.078;2023-05-10T09:22:23;0.75;;;0.75;;
26082;SDS011;13848;49.018;12.078;2023-05-10T09:25:02;4.25;;;0.90;;
26082;SDS011;13848;49.018;12.078;2023-05-10T09:27:30;1.20;;;0.95;;
26082;SDS011;13848;49.018;12.078;2023-05-10T09:29:56;0.80;;;0.80;;
26082;SDS011;13848;49.018;12.078;2023-05-10T09:32:24;1.77;;;1.15;;
26082;SDS011;13848;49.018;12.078;2023-05-10T09:35:05;1.98;;;1.10;;
26082;SDS011;13848;49.018;12.078;2023-05-10T09:37:34;2.00;;;1.10;;
26082;SDS011;13848;49.018;12.078;2023-05-10T09:40:01;2.25;;;1.70;;
26082;SDS011;13848;49.018;12.078;2023-05-10T09:42:31;3.15;;;1.38;;
26082;SDS011;13848;49.018;12.078;2023-05-10T09:44:59;1.02;;;0.90;;
26082;SDS011;13848;49.018;12.078;2023-05-10T09:47:26;1.35;;;0.80;;
26082;SDS011;13848;49.018;12.078;2023-05-10T09:49:52;1.48;;;1.17;;
26082;SDS011;13848;49.018;12.078;2023-05-10T09:52:18;1.58;;;1.00;;
26082;SDS011;13848;49.018;12.078;2023-05-10T09:54:45;1.05;;;0.98;;
26082;SDS011;13848;49.018;12.078;2023-05-10T09:57:18;1.45;;;0.90;;
26082;SDS011;13848;49.018;12.078;2023-05-10T09:59:47;2.58;;;1.60;;
26082;SDS011;13848;49.018;12.078;2023-05-10T10:02:13;4.15;;;2.58;;
26082;SDS011;13848;49.018;12.078;2023-05-10T10:04:39;1.58;;;1.25;;
26082;SDS011;13848;49.018;12.078;2023-05-10T10:07:05;1.83;;;1.10;;
26082;SDS011;13848;49.018;12.078;2023-05-10T10:09:32;1.77;;;1.38;;
26082;SDS011;13848;49.018;12.078;2023-05-10T10:11:59;1.98;;;1.00;;
26082;SDS011;13848;49.018;12.078;2023-05-10T10:14:25;2.95;;;0.90;;
26082;SDS011;13848;49.018;12.078;2023-05-10T10:16:53;1.73;;;0.90;;
26082;SDS011;13848;49.018;12.078;2023-05-10T10:19:19;3.90;;;1.30;;
26082;SDS011;13848;49.018;12.078;2023-05-10T10:21:45;4.80;;;1.20;;
26082;SDS011;13848;49.018;12.078;2023-05-10T10:24:11;6.13;;;0.98;;
26082;SDS011;13848;49.018;12.078;2023-05-10T10:26:37;1.92;;;0.70;;
26082;SDS011;13848;49.018;12.078;2023-05-10T10:29:06;1.33;;;0.80;;
26082;SDS011;13848;49.018;12.078;2023-05-10T10:31:44;0.95;;;0.70;;
26082;SDS011;13848;49.018;12.078;2023-05-10T10:34:20;4.10;;;0.90;;
26082;SDS011;13848;49.018;12.078;2023-05-10T10:36:50;0.90;;;0.50;;
26082;SDS011;13848;49.018;12.078;2023-05-10T10:39:16;0.77;;;0.77;;
26082;SDS011;13848;49.018;12.078;2023-05-10T10:41:49;1.20;;;0.70;;
26082;SDS011;13848;49.018;12.078;2023-05-10T10:44:22;0.80;;;0.80;;
26082;SDS011;13848;49.018;12.078;2023-05-10T10:46:58;1.73;;;0.80;;
26082;SDS011;13848;49.018;12.078;2023-05-10T10:49:26;1.02;;;0.93;;
26082;SDS011;13848;49.018;12.078;2023-05-10T10:54:41;1.00;;;0.90;;
26082;SDS011;13848;49.018;12.078;2023-05-10T10:57:12;1.73;;;0.70;;
26082;SDS011;13848;49.018;12.078;2023-05-10T10:59:41;0.52;;;0.52;;
26082;SDS011;13848;49.018;12.078;2023-05-10T11:02:07;1.17;;;0.70;;
26082;SDS011;13848;49.018;12.078;2023-05-10T11:04:42;1.08;;;0.82;;
26082;SDS011;13848;49.018;12.078;2023-05-10T11:07:17;1.55;;;0.88;;
26082;SDS011;13848;49.018;12.078;2023-05-10T11:09:44;0.70;;;0.70;;
26082;SDS011;13848;49.018;12.078;2023-05-10T11:12:12;0.88;;;0.60;;
26082;SDS011;13848;49.018;12.078;2023-05-10T11:14:38;3.05;;;0.73;;
26082;SDS011;13848;49.018;12.078;2023-05-10T11:20:09;1.15;;;0.90;;
26082;SDS011;13848;49.018;12.078;2023-05-10T11:22:51;0.80;;;0.80;;
26082;SDS011;13848;49.018;12.078;2023-05-10T11:25:18;3.30;;;0.70;;
26082;SDS011;13848;49.018;12.078;2023-05-10T11:27:45;1.25;;;0.90;;
26082;SDS011;13848;49.018;12.078;2023-05-10T11:30:13;0.60;;;0.60;;
26082;SDS011;13848;49.018;12.078;2023-05-10T11:32:40;5.63;;;0.80;;
26082;SDS011;13848;49.018;12.078;2023-05-10T11:35:07;8.20;;;4.85;;
26082;SDS011;13848;49.018;12.078;2023-05-10T11:37:35;12.77;;;8.40;;
26082;SDS011;13848;49.018;12.078;2023-05-10T11:40:01;4.85;;;2.97;;
26082;SDS011;13848;49.018;12.078;2023-05-10T11:42:27;6.15;;;4.00;;
26082;SDS011;13848;49.018;12.078;2023-05-10T11:44:53;3.40;;;2.33;;
26082;SDS011;13848;49.018;12.078;2023-05-10T11:47:19;43.42;;;29.00;;
26082;SDS011;13848;49.018;12.078;2023-05-10T11:49:46;16.98;;;11.52;;
26082;SDS011;13848;49.018;12.078;2023-05-10T11:52:13;16.58;;;9.65;;
26082;SDS011;13848;49.018;12.078;2023-05-10T11:54:44;5.65;;;4.00;;
26082;SDS011;13848;49.018;12.078;2023-05-10T11:57:11;3.08;;;2.30;;
26082;SDS011;13848;49.018;12.078;2023-05-10T11:59:37;7.13;;;4.20;;
26082;SDS011;13848;49.018;12.078;2023-05-10T12:02:03;2.60;;;1.42;;
26082;SDS011;13848;49.018;12.078;2023-05-10T12:04:29;1.38;;;1.25;;
26082;SDS011;13848;49.018;12.078;2023-05-10T12:06:55;1.65;;;1.55;;
26082;SDS011;13848;49.018;12.078;2023-05-10T12:09:22;2.70;;;2.10;;
26082;SDS011;13848;49.018;12.078;2023-05-10T12:11:48;2.55;;;1.95;;
26082;SDS011;13848;49.018;12.078;2023-05-10T12:14:14;3.83;;;2.38;;
26082;SDS011;13848;49.018;12.078;2023-05-10T12:16:41;0.98;;;0.82;;
26082;SDS011;13848;49.018;12.078;2023-05-10T12:19:08;1.00;;;0.90;;
26082;SDS011;13848;49.018;12.078;2023-05-10T12:21:34;8.60;;;6.35;;
26082;SDS011;13848;49.018;12.078;2023-05-10T12:24:01;6.43;;;4.20;;
26082;SDS011;13848;49.018;12.078;2023-05-10T12:26:29;8.18;;;5.57;;
26082;SDS011;13848;49.018;12.078;2023-05-10T12:29:11;4.32;;;2.40;;
26082;SDS011;13848;49.018;12.078;2023-05-10T12:31:48;3.10;;;2.35;;
26082;SDS011;13848;49.018;12.078;2023-05-10T12:34:22;5.63;;;1.00;;
26082;SDS011;13848;49.018;12.078;2023-05-10T12:36:49;1.08;;;0.90;;
26082;SDS011;13848;49.018;12.078;2023-05-10T12:39:16;1.35;;;0.90;;
26082;SDS011;13848;49.018;12.078;2023-05-10T12:41:43;2.13;;;1.13;;
26082;SDS011;13848;49.018;12.078;2023-05-10T12:44:09;1.40;;;1.15;;
26082;SDS011;13848;49.018;12.078;2023-05-10T12:46:35;3.58;;;1.20;;
26082;SDS011;13848;49.018;12.078;2023-05-10T12:49:01;1.00;;;0.90;;
26082;SDS011;13848;49.018;12.078;2023-05-10T12:51:27;1.05;;;0.90;;
26082;SDS011;13848;49.018;12.078;2023-05-10T12:53:53;1.23;;;0.73;;
26082;SDS011;13848;49.018;12.078;2023-05-10T12:56:19;14.05;;;9.68;;
26082;SDS011;13848;49.018;12.078;2023-05-10T12:58:46;6.95;;;4.05;;
26082;SDS011;13848;49.018;12.078;2023-05-10T13:01:12;3.92;;;3.00;;
26082;SDS011;13848;49.018;12.078;2023-05-10T13:03:38;3.00;;;1.60;;
26082;SDS011;13848;49.018;12.078;2023-05-10T13:06:04;2.45;;;1.15;;
26082;SDS011;13848;49.018;12.078;2023-05-10T13:08:30;5.07;;;0.90;;
26082;SDS011;13848;49.018;12.078;2023-05-10T13:10:56;1.00;;;0.73;;
26082;SDS011;13848;49.018;12.078;2023-05-10T13:13:22;2.42;;;1.75;;
26082;SDS011;13848;49.018;12.078;2023-05-10T13:15:50;6.35;;;4.03;;
26082;SDS011;13848;49.018;12.078;2023-05-10T13:18:16;3.65;;;1.40;;
26082;SDS011;13848;49.018;12.078;2023-05-10T13:20:42;5.03;;;2.90;;
26082;SDS011;13848;49.018;12.078;2023-05-10T13:23:08;2.75;;;2.08;;
26082;SDS011;13848;49.018;12.078;2023-05-10T13:25:33;2.47;;;1.77;;
26082;SDS011;13848;49.018;12.078;2023-05-10T13:27:59;4.38;;;1.45;;
26082;SDS011;13848;49.018;12.078;2023-05-10T13:30:25;4.57;;;2.30;;
26082;SDS011;13848;49.018;12.078;2023-05-10T13:32:53;3.17;;;1.77;;
26082;SDS011;13848;49.018;12.078;2023-05-10T13:35:19;2.45;;;1.60;;
26082;SDS011;13848;49.018;12.078;2023-05-10T13:37:45;6.13;;;1.73;;
26082;SDS011;13848;49.018;12.078;2023-05-10T13:40:11;3.80;;;2.05;;
26082;SDS011;13848;49.018;12.078;2023-05-10T13:42:40;2.05;;;1.27;;
26082;SDS011;13848;49.018;12.078;2023-05-10T13:45:07;7.75;;;4.80;;
26082;SDS011;13848;49.018;12.078;2023-05-10T13:47:34;6.55;;;3.72;;
26082;SDS011;13848;49.018;12.078;2023-05-10T13:50:02;4.78;;;2.42;;
26082;SDS011;13848;49.018;12.078;2023-05-10T13:52:28;1.83;;;1.20;;
26082;SDS011;13848;49.018;12.078;2023-05-10T13:54:54;1.98;;;1.05;;
26082;SDS011;13848;49.018;12.078;2023-05-10T13:57:20;4.93;;;1.35;;
26082;SDS011;13848;49.018;12.078;2023-05-10T13:59:46;1.35;;;0.93;;
26082;SDS011;13848;49.018;12.078;2023-05-10T14:02:12;10.73;;;7.18;;
26082;SDS011;13848;49.018;12.078;2023-05-10T14:04:38;1.45;;;1.13;;
26082;SDS011;13848;49.018;12.078;2023-05-10T14:07:05;4.72;;;2.42;;
26082;SDS011;13848;49.018;12.078;2023-05-10T14:09:31;4.30;;;2.63;;
26082;SDS011;13848;49.018;12.078;2023-05-10T14:11:57;9.00;;;5.82;;
26082;SDS011;13848;49.018;12.078;2023-05-10T14:14:23;4.72;;;2.85;;
26082;SDS011;13848;49.018;12.078;2023-05-10T14:16:49;1.15;;;0.88;;
26082;SDS011;13848;49.018;12.078;2023-05-10T14:19:15;1.33;;;1.00;;
26082;SDS011;13848;49.018;12.078;2023-05-10T14:21:41;1.13;;;1.00;;
26082;SDS011;13848;49.018;12.078;2023-05-10T14:24:08;1.33;;;0.90;;
26082;SDS011;13848;49.018;12.078;2023-05-10T14:26:34;4.15;;;1.42;;
26082;SDS011;13848;49.018;12.078;2023-05-10T14:29:00;3.40;;;2.00;;
26082;SDS011;13848;49.018;12.078;2023-05-10T14:31:26;8.07;;;1.70;;
26082;SDS011;13848;49.018;12.078;2023-05-10T14:33:52;3.17;;;1.70;;
26082;SDS011;13848;49.018;12.078;2023-05-10T14:36:18;1.92;;;1.60;;
26082;SDS011;13848;49.018;12.078;2023-05-10T14:38:44;2.28;;;1.30;;
26082;SDS011;13848;49.018;12.078;2023-05-10T14:41:11;3.35;;;1.42;;